Time;durP1;ratioP1;P1;durP2;ratioP2;P2;SDS_P1;SDS_P2;PMS_P1;PMS_P2;Temp;Humidity;BMP_temperature;BMP_pressure;BME280_temperature;BME280_humidity;BME280_pressure;Samples;Min_cycle;Max_cycle;Signal;HPM_P1;HPM_P2
2022/01/04 00:02:10;;;;;;;9.05;1.98;;;7.20;99.90;;;;;;5047392;28;20084;-84
2022/01/04 00:04:36;;;;;;;10.70;1.75;;;7.20;99.90;;;;;;5032519;28;20134;-81
2022/01/04 00:07:02;;;;;;;17.23;2.65;;;7.20;99.90;;;;;;5015135;28;20045;-84
2022/01/04 00:09:28;;;;;;;18.67;2.78;;;7.20;99.90;;;;;;5032546;28;20052;-81
2022/01/04 00:14:20;;;;;;;18.00;2.65;;;7.20;99.90;;;;;;5016137;28;20065;-84
2022/01/04 00:16:46;;;;;;;9.48;1.83;;;7.30;99.90;;;;;;5016286;28;20041;-84
2022/01/04 00:19:11;;;;;;;15.05;2.53;;;7.10;99.90;;;;;;5032569;28;20037;-82
2022/01/04 00:21:38;;;;;;;10.90;2.05;;;7.10;99.90;;;;;;5015494;28;20393;-81
2022/01/04 00:24:04;;;;;;;11.27;1.90;;;7.10;99.90;;;;;;5016236;28;20057;-81
2022/01/04 00:26:30;;;;;;;15.70;2.28;;;7.20;99.90;;;;;;5015915;28;20489;-81
2022/01/04 00:28:56;;;;;;;18.38;2.03;;;7.20;99.90;;;;;;5032520;28;20052;-83
2022/01/04 00:31:22;;;;;;;14.25;1.95;;;7.30;99.90;;;;;;5032215;28;20049;-81
2022/01/04 00:33:49;;;;;;;15.82;2.10;;;7.30;99.90;;;;;;5031933;28;20095;-84
2022/01/04 00:36:14;;;;;;;26.98;4.30;;;7.20;99.90;;;;;;5015600;28;20076;-83
2022/01/04 00:38:40;;;;;;;24.60;3.65;;;7.40;99.90;;;;;;5035965;28;20083;-83
2022/01/04 00:41:06;;;;;;;29.75;3.95;;;7.20;99.90;;;;;;5031911;28;20045;-81
2022/01/04 00:43:32;;;;;;;17.10;3.15;;;7.40;99.90;;;;;;5015351;28;20049;-84
2022/01/04 00:45:59;;;;;;;21.13;2.85;;;7.10;99.90;;;;;;5032236;28;20492;-81
2022/01/04 00:50:52;;;;;;;12.70;2.38;;;7.10;99.90;;;;;;5048477;28;20041;-83
2022/01/04 00:53:18;;;;;;;21.27;4.30;;;7.10;99.90;;;;;;5031789;28;20044;-80
2022/01/04 00:55:44;;;;;;;28.45;3.60;;;7.10;99.90;;;;;;5031966;28;20038;-81
2022/01/04 00:58:10;;;;;;;27.25;4.95;;;7.00;99.90;;;;;;5015479;28;20124;-82
2022/01/04 01:00:36;;;;;;;28.27;4.93;;;7.00;99.90;;;;;;5031301;28;20045;-81
2022/01/04 01:03:02;;;;;;;28.88;3.95;;;7.00;99.90;;;;;;5014975;28;20068;-81
2022/01/04 01:05:29;;;;;;;22.98;3.20;;;7.10;99.90;;;;;;5048345;28;20091;-83
2022/01/04 01:07:56;;;;;;;23.17;3.35;;;7.10;99.90;;;;;;5031511;28;20053;-81
2022/01/04 01:10:43;;;;;;;16.52;3.00;;;7.10;99.90;;;;;;5015386;28;20484;-81
2022/01/04 01:13:11;;;;;;;22.05;4.53;;;7.10;99.90;;;;;;5031140;28;20046;-84
2022/01/04 01:15:38;;;;;;;19.30;3.60;;;7.10;99.90;;;;;;5047277;28;20049;-84
2022/01/04 01:18:04;;;;;;;13.95;3.15;;;7.20;99.90;;;;;;5031265;28;20358;-80
2022/01/04 01:20:29;;;;;;;23.13;4.57;;;7.10;99.90;;;;;;5015063;28;20116;-81
2022/01/04 01:22:55;;;;;;;26.90;4.32;;;7.20;99.90;;;;;;5015201;28;20079;-83
2022/01/04 01:25:21;;;;;;;31.80;5.68;;;7.10;99.90;;;;;;5014703;28;20048;-81
2022/01/04 01:27:47;;;;;;;17.88;4.07;;;7.30;99.90;;;;;;5014611;28;20049;-81
2022/01/04 01:30:14;;;;;;;36.10;6.18;;;7.10;99.90;;;;;;5031248;28;20053;-81
2022/01/04 01:32:40;;;;;;;21.02;5.07;;;7.20;99.90;;;;;;4999138;28;20040;-83
2022/01/04 01:35:06;;;;;;;34.65;5.72;;;7.00;99.90;;;;;;5030471;28;20049;-81
2022/01/04 01:37:34;;;;;;;27.65;5.65;;;7.00;99.90;;;;;;5031366;28;20053;-81
2022/01/04 01:39:59;;;;;;;27.92;4.38;;;7.10;99.90;;;;;;5031323;28;20054;-81
2022/01/04 01:42:25;;;;;;;16.23;3.38;;;7.20;99.90;;;;;;5047692;28;20053;-81
2022/01/04 01:44:51;;;;;;;19.67;4.78;;;7.20;99.90;;;;;;5014878;28;20037;-81
2022/01/04 01:47:17;;;;;;;20.95;3.85;;;7.30;99.90;;;;;;5014937;28;20060;-83
2022/01/04 01:49:44;;;;;;;12.38;2.40;;;7.20;99.90;;;;;;5048147;28;20057;-81
2022/01/04 01:52:10;;;;;;;32.13;5.18;;;7.20;99.90;;;;;;5014762;28;20049;-81
2022/01/04 01:54:35;;;;;;;10.90;1.63;;;7.20;99.90;;;;;;5047343;28;20120;-81
2022/01/04 01:57:01;;;;;;;16.60;2.85;;;7.30;99.90;;;;;;5031122;28;20492;-81
2022/01/04 01:59:27;;;;;;;20.58;5.70;;;7.30;99.90;;;;;;5014487;28;20064;-81
2022/01/04 02:01:53;;;;;;;17.48;3.50;;;7.30;99.90;;;;;;5014029;28;20041;-84
2022/01/04 02:04:19;;;;;;;25.73;4.20;;;7.30;99.90;;;;;;5030391;28;20045;-84
2022/01/04 02:06:45;;;;;;;18.17;4.05;;;7.30;99.90;;;;;;5030809;28;20550;-83
2022/01/04 02:09:11;;;;;;;38.75;5.93;;;7.50;99.90;;;;;;5047319;28;20389;-83
2022/01/04 02:11:37;;;;;;;14.75;3.30;;;7.40;99.90;;;;;;4999475;28;20047;-83
2022/01/04 02:14:03;;;;;;;19.00;3.55;;;7.50;99.90;;;;;;5014268;28;20045;-84
2022/01/04 02:16:31;;;;;;;14.90;2.75;;;7.40;99.90;;;;;;5031013;28;20045;-81
2022/01/04 02:19:05;;;;;;;5.38;1.63;;;7.40;99.90;;;;;;5013736;28;20080;-84
2022/01/04 02:21:35;;;;;;;19.85;3.42;;;7.60;99.90;;;;;;5014419;28;20103;-81
2022/01/04 02:24:02;;;;;;;17.65;3.10;;;7.50;99.90;;;;;;5013687;28;20049;-81
2022/01/04 02:26:32;;;;;;;32.10;5.10;;;7.40;99.90;;;;;;5030675;28;20041;-81
2022/01/04 02:28:58;;;;;;;25.95;4.57;;;7.40;99.90;;;;;;5030215;28;20042;-83
2022/01/04 02:31:24;;;;;;;37.05;4.10;;;7.40;99.90;;;;;;5030607;28;20087;-83
2022/01/04 02:33:50;;;;;;;29.67;4.93;;;7.30;99.90;;;;;;5014172;28;20045;-81
2022/01/04 02:36:16;;;;;;;21.88;4.15;;;7.30;99.90;;;;;;5014917;28;20051;-83
2022/01/04 02:38:41;;;;;;;17.67;3.05;;;7.30;99.90;;;;;;5030615;28;20033;-81
2022/01/04 02:41:07;;;;;;;27.33;6.43;;;7.40;99.90;;;;;;5046491;28;20042;-81
2022/01/04 02:43:33;;;;;;;41.15;7.13;;;7.30;99.90;;;;;;5030430;28;20048;-81
2022/01/04 02:45:59;;;;;;;24.52;5.32;;;7.40;99.90;;;;;;5015662;28;20064;-82
2022/01/04 02:48:24;;;;;;;20.30;4.38;;;7.30;99.90;;;;;;5033988;28;20503;-81
2022/01/04 02:50:50;;;;;;;25.55;4.75;;;7.40;99.90;;;;;;5033306;28;20045;-81
2022/01/04 02:53:17;;;;;;;27.77;7.15;;;7.40;99.90;;;;;;5050988;28;20049;-81
2022/01/04 02:55:43;;;;;;;23.85;5.13;;;7.30;99.90;;;;;;5050584;28;20045;-83
2022/01/04 02:58:09;;;;;;;8.07;2.78;;;7.40;99.90;;;;;;5051663;28;20049;-83
2022/01/04 03:00:35;;;;;;;34.67;7.53;;;7.40;99.90;;;;;;5034028;28;20554;-83
2022/01/04 03:03:00;;;;;;;34.30;6.05;;;7.40;99.90;;;;;;5033628;28;20053;-83
2022/01/04 03:05:26;;;;;;;33.80;7.03;;;7.50;99.90;;;;;;5050444;28;20041;-81
2022/01/04 03:07:52;;;;;;;11.27;2.97;;;7.50;99.90;;;;;;5050623;28;20050;-84
2022/01/04 03:10:18;;;;;;;23.60;4.57;;;7.50;99.90;;;;;;5033566;28;20500;-84
2022/01/04 03:12:44;;;;;;;27.85;4.47;;;7.50;99.90;;;;;;5017187;28;20042;-84
2022/01/04 03:15:13;;;;;;;26.13;5.38;;;7.50;99.90;;;;;;5018032;28;20041;-82
2022/01/04 03:17:40;;;;;;;31.38;5.45;;;7.50;99.90;;;;;;5001007;28;20444;-84
2022/01/04 03:20:07;;;;;;;20.88;5.32;;;7.50;99.90;;;;;;5033178;28;20053;-81
2022/01/04 03:22:33;;;;;;;17.98;4.18;;;7.40;99.90;;;;;;5033453;28;20452;-82
2022/01/04 03:24:59;;;;;;;29.38;5.82;;;7.40;99.90;;;;;;5017085;28;20107;-84
2022/01/04 03:27:25;;;;;;;18.98;3.63;;;7.40;99.90;;;;;;5017188;28;20396;-82
2022/01/04 03:29:50;;;;;;;16.75;3.92;;;7.40;99.90;;;;;;5017087;28;20052;-81
2022/01/04 03:32:16;;;;;;;25.73;5.38;;;7.40;99.90;;;;;;5033019;28;20037;-81
2022/01/04 03:34:42;;;;;;;21.08;4.15;;;7.40;99.90;;;;;;5016662;28;20092;-81
2022/01/04 03:37:08;;;;;;;31.30;6.00;;;7.40;99.90;;;;;;5017773;28;20090;-81
2022/01/04 03:39:33;;;;;;;22.08;3.85;;;7.40;99.90;;;;;;5049771;28;20095;-81
2022/01/04 03:41:59;;;;;;;26.60;5.30;;;7.70;99.90;;;;;;5016464;28;20504;-81
2022/01/04 03:44:25;;;;;;;18.63;4.18;;;7.40;99.90;;;;;;5032533;28;20042;-84
2022/01/04 03:46:53;;;;;;;18.98;4.20;;;7.50;99.90;;;;;;5000652;28;20088;-84
2022/01/04 03:49:19;;;;;;;19.17;3.25;;;7.40;99.90;;;;;;5032401;28;20045;-84
2022/01/04 03:51:45;;;;;;;27.25;5.68;;;7.40;99.90;;;;;;5032697;28;20403;-81
2022/01/04 03:54:11;;;;;;;20.17;4.22;;;7.50;99.90;;;;;;5032697;28;20499;-83
2022/01/04 03:56:37;;;;;;;14.77;3.10;;;7.30;99.90;;;;;;5016256;28;20049;-83
2022/01/04 03:59:04;;;;;;;25.02;3.83;;;7.40;99.90;;;;;;5049880;28;20057;-84
2022/01/04 04:01:30;;;;;;;36.65;7.68;;;7.30;99.90;;;;;;5049076;28;20041;-81
2022/01/04 04:03:56;;;;;;;18.98;3.00;;;7.30;99.90;;;;;;5032366;28;20111;-81
2022/01/04 04:06:21;;;;;;;46.55;6.65;;;7.30;99.90;;;;;;5033164;28;20574;-80
2022/01/04 04:08:48;;;;;;;43.35;7.55;;;7.30;99.90;;;;;;5032257;28;20045;-84
2022/01/04 04:11:14;;;;;;;28.13;4.70;;;7.40;99.90;;;;;;5049447;28;20507;-81
2022/01/04 04:13:40;;;;;;;19.95;4.00;;;7.30;99.90;;;;;;5016308;28;20045;-81
2022/01/04 04:16:05;;;;;;;37.60;6.75;;;7.30;99.90;;;;;;5017076;28;20413;-83
2022/01/04 04:18:31;;;;;;;12.93;3.13;;;7.40;99.90;;;;;;5032403;28;20049;-81
2022/01/04 04:20:57;;;;;;;20.27;3.70;;;7.50;99.90;;;;;;4999504;28;20052;-83
2022/01/04 04:23:23;;;;;;;28.27;5.53;;;7.80;99.90;;;;;;5032574;28;20053;-83
2022/01/04 04:25:49;;;;;;;25.98;3.80;;;7.30;99.90;;;;;;5015633;28;20048;-84
2022/01/04 04:28:14;;;;;;;21.48;4.13;;;7.40;99.90;;;;;;5015724;28;20046;-81
2022/01/04 04:30:40;;;;;;;26.10;4.43;;;7.30;99.90;;;;;;5015865;28;20068;-81
2022/01/04 04:33:06;;;;;;;10.98;3.08;;;7.30;99.90;;;;;;5015554;28;20045;-81
2022/01/04 04:35:32;;;;;;;23.02;3.67;;;7.30;99.90;;;;;;5016159;28;20041;-84
2022/01/04 04:38:00;;;;;;;29.48;4.55;;;7.30;99.90;;;;;;5031854;28;20100;-81
2022/01/04 04:40:26;;;;;;;25.45;4.60;;;7.30;99.90;;;;;;5048529;28;20049;-83
2022/01/04 04:42:52;;;;;;;26.23;6.85;;;7.20;99.90;;;;;;5031718;28;20041;-81
2022/01/04 04:45:18;;;;;;;15.68;3.53;;;7.30;99.90;;;;;;5015363;28;20046;-81
2022/01/04 04:47:43;;;;;;;31.70;5.00;;;7.30;99.90;;;;;;5048236;28;20133;-83
2022/01/04 04:50:09;;;;;;;24.30;4.60;;;7.20;99.90;;;;;;5048111;28;20120;-80
2022/01/04 04:52:35;;;;;;;24.02;6.50;;;7.20;99.90;;;;;;5032216;28;20057;-80
2022/01/04 04:55:03;;;;;;;22.95;4.70;;;7.30;99.90;;;;;;5032034;28;20045;-80
2022/01/04 04:57:28;;;;;;;23.65;4.75;;;7.30;99.90;;;;;;5004509;28;20096;-81
2022/01/04 04:59:54;;;;;;;23.10;3.17;;;7.30;99.90;;;;;;5048838;28;20053;-83
2022/01/04 05:02:20;;;;;;;16.83;2.55;;;7.30;99.90;;;;;;4998476;28;20054;-81
2022/01/04 05:04:45;;;;;;;17.70;5.72;;;7.30;99.90;;;;;;5015221;28;20061;-80
2022/01/04 05:07:11;;;;;;;19.48;5.18;;;7.30;99.90;;;;;;5031885;28;20049;-80
2022/01/04 05:09:37;;;;;;;33.33;5.50;;;7.30;99.90;;;;;;5031010;28;20373;-81
2022/01/04 05:12:05;;;;;;;42.25;5.50;;;7.40;99.90;;;;;;5031690;28;20084;-83
2022/01/04 05:14:32;;;;;;;24.60;4.70;;;7.40;99.90;;;;;;5031434;28;20404;-80
2022/01/04 05:16:57;;;;;;;18.15;3.83;;;7.50;99.90;;;;;;5031843;28;20076;-83
2022/01/04 05:19:23;;;;;;;19.10;3.83;;;7.40;99.90;;;;;;5031713;28;20053;-83
2022/01/04 05:21:49;;;;;;;32.53;4.93;;;7.50;99.90;;;;;;5015367;28;20080;-80
2022/01/04 05:24:15;;;;;;;25.30;6.15;;;7.40;99.90;;;;;;5014941;28;20049;-80
2022/01/04 05:26:40;;;;;;;35.35;7.50;;;7.40;99.90;;;;;;5014922;28;20045;-81
2022/01/04 05:29:06;;;;;;;27.23;5.07;;;7.50;99.90;;;;;;5031402;28;20492;-81
2022/01/04 05:31:32;;;;;;;33.53;5.57;;;7.30;99.90;;;;;;5048397;28;20042;-80
2022/01/04 05:33:57;;;;;;;30.20;5.50;;;7.30;99.90;;;;;;5014465;28;20060;-80
2022/01/04 05:36:23;;;;;;;14.32;3.13;;;7.30;99.90;;;;;;5031013;28;20050;-81
2022/01/04 05:38:49;;;;;;;31.00;5.00;;;7.20;99.90;;;;;;5031067;28;20115;-81
2022/01/04 05:41:15;;;;;;;21.85;4.22;;;7.30;99.90;;;;;;5015485;28;20052;-81
2022/01/04 05:43:41;;;;;;;20.48;3.67;;;7.20;99.90;;;;;;5031044;28;20056;-83
2022/01/04 05:46:06;;;;;;;21.02;3.60;;;7.20;99.90;;;;;;5030988;28;20037;-83
2022/01/04 05:48:33;;;;;;;27.38;5.05;;;7.30;99.90;;;;;;5047861;28;20059;-83
2022/01/04 05:50:58;;;;;;;23.15;4.57;;;7.30;99.90;;;;;;5014616;28;20511;-80
2022/01/04 05:53:24;;;;;;;15.98;2.70;;;7.30;99.90;;;;;;5014968;28;20033;-84
2022/01/04 05:55:50;;;;;;;24.95;4.57;;;7.40;99.90;;;;;;5047328;28;20077;-83
2022/01/04 05:58:16;;;;;;;31.45;5.85;;;7.30;99.90;;;;;;5014623;28;20072;-80
2022/01/04 06:00:42;;;;;;;28.02;5.55;;;7.50;99.90;;;;;;5030716;28;20072;-81
2022/01/04 06:03:08;;;;;;;31.15;7.40;;;7.30;99.90;;;;;;5013830;28;20107;-81
2022/01/04 06:05:34;;;;;;;22.05;5.47;;;7.40;99.90;;;;;;5013435;28;20456;-83
2022/01/04 06:07:59;;;;;;;26.05;4.45;;;7.30;99.90;;;;;;5014238;28;20454;-81
2022/01/04 06:10:25;;;;;;;40.00;8.15;;;7.30;99.90;;;;;;5030820;28;20080;-81
2022/01/04 06:15:17;;;;;;;24.35;3.25;;;7.30;99.90;;;;;;5030944;28;20045;-81
2022/01/04 06:17:50;;;;;;;19.30;3.22;;;7.30;99.90;;;;;;5030826;28;20556;-80
2022/01/04 06:20:19;;;;;;;5.23;1.63;;;7.30;99.90;;;;;;5048081;28;20049;-81
2022/01/04 06:22:45;;;;;;;29.02;4.38;;;7.40;99.90;;;;;;5033076;28;20400;-83
2022/01/04 06:25:13;;;;;;;33.40;5.38;;;7.50;99.90;;;;;;5051668;28;20042;-80
2022/01/04 06:27:42;;;;;;;22.17;5.15;;;7.50;99.90;;;;;;5034314;28;20393;-80
2022/01/04 06:30:09;;;;;;;17.90;6.18;;;7.50;99.90;;;;;;5050983;28;20045;-80
2022/01/04 06:32:38;;;;;;;20.77;3.85;;;7.60;99.90;;;;;;5018059;28;20044;-84
2022/01/04 06:35:05;;;;;;;17.48;3.83;;;7.60;99.90;;;;;;5017577;28;20128;-84
2022/01/04 06:37:32;;;;;;;8.50;2.47;;;7.60;99.90;;;;;;5017725;28;20037;-81
2022/01/04 06:39:58;;;;;;;14.07;3.50;;;7.70;99.90;;;;;;5018383;28;20081;-81
2022/01/04 06:42:24;;;;;;;15.75;3.80;;;7.60;99.90;;;;;;5050606;28;20526;-81
2022/01/04 06:44:49;;;;;;;16.85;3.53;;;7.50;99.90;;;;;;5017629;28;20038;-81
2022/01/04 06:47:15;;;;;;;6.78;1.75;;;7.50;99.90;;;;;;5033954;28;20087;-84
2022/01/04 06:49:41;;;;;;;30.58;4.85;;;7.40;99.90;;;;;;5051007;28;20049;-84
2022/01/04 06:52:08;;;;;;;17.08;3.85;;;7.40;99.90;;;;;;5050501;28;20045;-82
2022/01/04 06:54:34;;;;;;;11.98;2.65;;;7.30;99.90;;;;;;5034095;28;20083;-83
2022/01/04 06:57:00;;;;;;;14.88;3.25;;;7.30;99.90;;;;;;5017547;28;20049;-82
2022/01/04 06:59:25;;;;;;;22.10;5.15;;;7.30;99.90;;;;;;5017573;28;20445;-84
2022/01/04 07:01:51;;;;;;;14.82;3.42;;;7.40;99.90;;;;;;5033587;28;20492;-81
2022/01/04 07:04:17;;;;;;;22.48;3.75;;;7.40;99.90;;;;;;5017105;28;20128;-81
2022/01/04 07:06:43;;;;;;;19.88;3.40;;;7.30;99.90;;;;;;5049156;28;20439;-81
2022/01/04 07:09:09;;;;;;;16.98;3.67;;;7.30;99.90;;;;;;5050051;28;20091;-81
2022/01/04 07:11:35;;;;;;;17.25;3.58;;;7.30;99.90;;;;;;5016775;28;20081;-81
2022/01/04 07:14:02;;;;;;;19.05;3.75;;;7.30;99.90;;;;;;5017022;28;20037;-82
2022/01/04 07:16:27;;;;;;;10.57;2.10;;;7.20;99.90;;;;;;5000904;28;20041;-83
2022/01/04 07:18:54;;;;;;;8.70;1.73;;;7.20;99.90;;;;;;5033549;28;20042;-84
2022/01/04 07:21:21;;;;;;;23.30;3.70;;;7.20;99.90;;;;;;5033584;28;20049;-85
2022/01/04 07:23:48;;;;;;;7.90;1.35;;;7.10;99.90;;;;;;5033168;28;20436;-84
2022/01/04 07:26:15;;;;;;;5.40;1.52;;;7.20;99.90;;;;;;5049886;28;20408;-82
2022/01/04 07:28:43;;;;;;;25.05;4.75;;;7.20;99.90;;;;;;5017073;28;20077;-81
2022/01/04 07:31:09;;;;;;;20.48;4.35;;;7.00;99.90;;;;;;5033007;28;20177;-84
2022/01/04 07:33:35;;;;;;;19.55;3.13;;;7.00;99.90;;;;;;5049189;28;20473;-83
2022/01/04 07:36:01;;;;;;;14.70;2.17;;;6.90;99.90;;;;;;5032675;28;20053;-81
2022/01/04 07:38:27;;;;;;;9.13;1.65;;;6.90;99.90;;;;;;5033308;28;20098;-84
2022/01/04 07:40:53;;;;;;;16.13;3.40;;;6.90;99.90;;;;;;5032915;28;20125;-84
2022/01/04 07:43:19;;;;;;;17.00;3.00;;;7.10;99.90;;;;;;5033118;28;20056;-84
2022/01/04 07:45:45;;;;;;;16.92;2.40;;;6.80;99.90;;;;;;5033462;28;20045;-83
2022/01/04 07:48:10;;;;;;;7.78;1.90;;;6.80;99.90;;;;;;5032882;28;20045;-83
2022/01/04 07:50:38;;;;;;;22.50;4.03;;;6.70;99.90;;;;;;5016616;28;20052;-82
2022/01/04 07:53:04;;;;;;;15.85;3.28;;;6.70;99.90;;;;;;5032441;28;20057;-84
2022/01/04 07:55:30;;;;;;;21.02;3.85;;;6.70;99.90;;;;;;5033307;28;20045;-83
2022/01/04 07:57:56;;;;;;;23.35;4.25;;;6.70;99.90;;;;;;5016473;28;20053;-81
2022/01/04 08:00:22;;;;;;;17.80;4.03;;;6.80;99.90;;;;;;5015962;28;20551;-81
2022/01/04 08:02:47;;;;;;;23.08;3.88;;;6.80;99.90;;;;;;5032043;28;20492;-81
2022/01/04 08:05:13;;;;;;;13.45;3.05;;;6.80;99.90;;;;;;5049277;28;20057;-81
2022/01/04 08:07:41;;;;;;;18.33;3.90;;;6.80;99.90;;;;;;5048530;28;20482;-81
2022/01/04 08:10:07;;;;;;;26.75;4.28;;;6.80;99.90;;;;;;5032223;28;20416;-80
2022/01/04 08:12:33;;;;;;;23.85;3.35;;;6.80;99.90;;;;;;5031752;28;20412;-83
2022/01/04 08:14:59;;;;;;;18.33;2.65;;;6.80;99.90;;;;;;5015685;28;20041;-84
2022/01/04 08:17:24;;;;;;;13.77;3.33;;;6.80;99.90;;;;;;5015422;28;20050;-81
2022/01/04 08:19:53;;;;;;;21.67;4.13;;;6.90;99.90;;;;;;4996558;28;20042;-84
2022/01/04 08:22:19;;;;;;;23.02;3.88;;;6.90;99.90;;;;;;5032296;28;20125;-81
2022/01/04 08:24:44;;;;;;;23.63;3.38;;;6.90;99.90;;;;;;5015866;28;20124;-81
2022/01/04 08:27:10;;;;;;;14.57;3.08;;;6.90;99.90;;;;;;5048601;28;20401;-81
2022/01/04 08:29:36;;;;;;;29.38;4.63;;;6.90;99.90;;;;;;5032561;28;20049;-83
2022/01/04 08:32:02;;;;;;;17.52;3.35;;;6.90;99.90;;;;;;5014912;28;20511;-80
2022/01/04 08:34:29;;;;;;;5.18;0.95;;;7.00;99.90;;;;;;5032355;28;20042;-83
2022/01/04 08:36:55;;;;;;;11.70;1.20;;;6.60;99.90;;;;;;5014184;28;20053;-80
2022/01/04 08:39:26;;;;;;;5.70;2.40;;;6.50;99.90;;;;;;5031449;28;20037;-80
2022/01/04 08:41:55;;;;;;;9.88;0.70;;;6.40;99.90;;;;;;5013703;28;20042;-83
2022/01/04 08:44:21;;;;;;;8.35;0.93;;;6.20;99.90;;;;;;5031157;28;20475;-81
2022/01/04 08:46:47;;;;;;;7.05;0.80;;;6.10;99.90;;;;;;5047072;28;20044;-83
2022/01/04 08:49:13;;;;;;;9.30;0.70;;;6.30;99.90;;;;;;5028202;28;20046;-82
2022/01/04 08:51:39;;;;;;;12.40;0.70;;;6.00;99.90;;;;;;5030543;28;20049;-83
2022/01/04 08:54:06;;;;;;;4.57;0.60;;;5.90;99.90;;;;;;5030926;28;20045;-83
2022/01/04 08:56:32;;;;;;;8.73;0.50;;;5.80;99.90;;;;;;5047109;28;20049;-83
2022/01/04 08:58:59;;;;;;;4.90;0.50;;;5.80;99.90;;;;;;5030494;28;20041;-80
2022/01/04 09:01:24;;;;;;;8.05;0.50;;;5.70;99.90;;;;;;5047261;28;20451;-80
2022/01/04 09:03:50;;;;;;;6.38;0.60;;;5.60;99.90;;;;;;5030660;28;20061;-82
2022/01/04 09:06:16;;;;;;;6.00;0.70;;;5.60;99.90;;;;;;5030113;28;20041;-80
2022/01/04 09:08:42;;;;;;;6.22;0.82;;;5.60;99.90;;;;;;5030293;28;20499;-83
2022/01/04 09:11:09;;;;;;;18.52;1.60;;;5.50;99.90;;;;;;5020590;28;20136;-83
2022/01/04 09:13:40;;;;;;;9.48;0.90;;;5.50;99.90;;;;;;5047165;28;20041;-79
2022/01/04 09:18:43;;;;;;;7.55;0.80;;;5.60;99.90;;;;;;5028045;28;20079;-83
2022/01/04 09:21:12;;;;;;;7.43;0.90;;;5.60;99.90;;;;;;5031160;28;20049;-80
2022/01/04 09:23:38;;;;;;;5.43;0.50;;;5.60;99.90;;;;;;5047747;28;20125;-80
2022/01/04 09:26:04;;;;;;;5.13;0.75;;;5.60;99.90;;;;;;5014200;28;20116;-80
2022/01/04 09:28:31;;;;;;;7.18;0.63;;;5.50;99.90;;;;;;5029362;28;20052;-79
2022/01/04 09:30:57;;;;;;;7.60;0.50;;;5.50;99.90;;;;;;5030354;28;20470;-80
2022/01/04 09:33:23;;;;;;;3.05;0.40;;;5.40;99.90;;;;;;5012741;28;20120;-80
2022/01/04 09:35:49;;;;;;;4.20;0.50;;;5.40;99.90;;;;;;5030018;28;20587;-82
2022/01/04 09:38:17;;;;;;;7.45;1.42;;;5.50;99.90;;;;;;5013596;28;20037;-80
2022/01/04 09:40:42;;;;;;;6.03;0.32;;;5.50;99.90;;;;;;5030085;28;20041;-79
2022/01/04 09:43:09;;;;;;;7.95;0.60;;;5.50;99.90;;;;;;5030201;28;20503;-83
2022/01/04 09:45:36;;;;;;;6.28;0.30;;;5.50;99.90;;;;;;5046675;28;20446;-80
2022/01/04 09:48:02;;;;;;;5.78;0.52;;;5.50;99.90;;;;;;5028785;28;20049;-82
2022/01/04 09:50:28;;;;;;;6.13;1.55;;;5.40;99.90;;;;;;5030145;28;20033;-82
2022/01/04 09:52:56;;;;;;;4.90;0.30;;;5.30;99.90;;;;;;5046382;28;20492;-82
2022/01/04 09:55:22;;;;;;;7.03;0.77;;;5.30;99.90;;;;;;5032793;28;20483;-80
2022/01/04 09:57:48;;;;;;;2.53;0.77;;;5.30;99.90;;;;;;5019859;28;20045;-79
2022/01/04 10:00:17;;;;;;;1.35;0.20;;;5.10;99.90;;;;;;5019842;28;20041;-79
2022/01/04 10:02:45;;;;;;;2.50;0.20;;;5.00;99.90;;;;;;5035815;28;20122;-82
2022/01/04 10:05:12;;;;;;;4.53;0.35;;;4.90;99.90;;;;;;5035768;28;20073;-79
2022/01/04 10:07:38;;;;;;;5.78;0.60;;;4.80;99.90;;;;;;5036057;28;20052;-81
2022/01/04 10:10:08;;;;;;;3.15;0.25;;;4.70;99.90;;;;;;5052934;28;20116;-79
2022/01/04 10:12:49;;;;;;;2.55;0.10;;;4.80;99.90;;;;;;5019793;28;20060;-79
2022/01/04 10:15:32;;;;;;;4.35;0.10;;;4.80;99.90;;;;;;5035693;28;20073;-82
2022/01/04 10:18:00;;;;;;;8.13;0.85;;;4.80;99.90;;;;;;5036034;28;20049;-81
2022/01/04 10:20:26;;;;;;;5.55;0.30;;;4.80;99.90;;;;;;5036115;28;20038;-82
2022/01/04 10:22:52;;;;;;;3.95;0.57;;;4.80;99.90;;;;;;5052903;28;20042;-79
2022/01/04 10:25:20;;;;;;;3.90;0.30;;;4.90;99.90;;;;;;5019861;28;20075;-79
2022/01/04 10:27:51;;;;;;;3.58;0.30;;;4.90;99.90;;;;;;5036040;28;20057;-79
2022/01/04 10:30:44;;;;;;;1.80;0.10;;;5.10;99.90;;;;;;5017546;28;20048;-82
2022/01/04 10:33:13;;;;;;;5.78;0.30;;;5.00;99.90;;;;;;5035231;28;20056;-82
2022/01/04 10:35:43;;;;;;;2.40;0.40;;;5.00;99.90;;;;;;5035892;28;20037;-79
2022/01/04 10:38:21;;;;;;;3.72;0.28;;;5.10;99.90;;;;;;5052597;28;20041;-80
2022/01/04 10:40:59;;;;;;;12.07;0.70;;;4.90;99.90;;;;;;5052281;28;20038;-79
2022/01/04 10:43:48;;;;;;;3.90;0.50;;;4.90;99.90;;;;;;5031530;28;20107;-79
2022/01/04 10:46:17;;;;;;;3.83;0.38;;;4.80;99.90;;;;;;5050215;28;20045;-79
2022/01/04 10:48:48;;;;;;;5.07;0.85;;;4.90;99.90;;;;;;5035426;28;20049;-83
2022/01/04 10:51:15;;;;;;;8.65;0.60;;;4.90;99.90;;;;;;5035669;28;20044;-79
2022/01/04 10:53:44;;;;;;;11.20;0.90;;;4.90;99.90;;;;;;5052651;28;20041;-79
2022/01/04 10:56:16;;;;;;;8.15;0.60;;;5.00;99.90;;;;;;5052452;28;20042;-79
2022/01/04 10:58:50;;;;;;;8.18;1.00;;;4.90;99.90;;;;;;5019690;28;20370;-79
2022/01/04 11:01:18;;;;;;;11.05;0.93;;;4.90;99.90;;;;;;5052471;28;20136;-79
2022/01/04 11:03:49;;;;;;;6.82;0.60;;;4.90;99.90;;;;;;5033607;28;20061;-79
2022/01/04 11:06:22;;;;;;;13.13;1.25;;;4.80;99.90;;;;;;5018216;28;20079;-82
2022/01/04 11:08:48;;;;;;;2.05;0.60;;;4.80;99.90;;;;;;5033376;28;20115;-80
2022/01/04 11:11:14;;;;;;;6.07;0.50;;;4.70;99.90;;;;;;5016317;28;20061;-79
2022/01/04 11:13:40;;;;;;;9.65;0.93;;;4.90;99.90;;;;;;5015856;28;20049;-80
2022/01/04 11:16:07;;;;;;;6.18;0.50;;;4.80;99.90;;;;;;5016148;28;20069;-82
2022/01/04 11:18:34;;;;;;;7.72;1.10;;;4.80;99.90;;;;;;5031809;28;20037;-79
2022/01/04 11:21:00;;;;;;;4.72;1.10;;;4.80;99.90;;;;;;5033474;28;20095;-82
2022/01/04 11:23:29;;;;;;;2.08;0.60;;;4.70;99.90;;;;;;5016578;28;20045;-79
2022/01/04 11:25:56;;;;;;;5.80;0.57;;;4.70;99.90;;;;;;5032360;28;20046;-82
2022/01/04 11:28:23;;;;;;;7.57;1.05;;;4.60;99.90;;;;;;5048478;28;20041;-80
2022/01/04 11:31:13;;;;;;;2.65;0.30;;;4.40;99.90;;;;;;5047575;28;20044;-80
2022/01/04 11:34:13;;;;;;;1.55;0.22;;;4.40;99.90;;;;;;5032041;28;20665;-80
2022/01/04 11:36:40;;;;;;;4.07;0.52;;;4.40;99.90;;;;;;5045602;28;20088;-82
2022/01/04 11:39:27;;;;;;;4.80;0.50;;;4.40;99.90;;;;;;5031842;28;20077;-80
2022/01/04 11:41:55;;;;;;;40.55;2.65;;;4.50;99.90;;;;;;5049552;28;20053;-82
2022/01/04 11:44:23;;;;;;;4.05;0.40;;;4.50;99.90;;;;;;5032096;28;20049;-80
2022/01/04 11:47:01;;;;;;;8.05;0.70;;;4.60;99.90;;;;;;5049050;28;20124;-82
2022/01/04 11:49:27;;;;;;;7.95;0.75;;;4.60;99.90;;;;;;5031853;28;20037;-82
2022/01/04 11:51:53;;;;;;;6.13;0.70;;;4.70;99.90;;;;;;5015912;28;20045;-80
2022/01/04 11:54:30;;;;;;;4.22;0.30;;;4.80;99.90;;;;;;5014216;28;20091;-80
2022/01/04 11:57:09;;;;;;;4.45;1.05;;;4.90;99.90;;;;;;5031782;28;20041;-82
2022/01/04 11:59:43;;;;;;;9.65;0.73;;;5.00;99.90;;;;;;5013148;28;20052;-80
2022/01/04 12:02:24;;;;;;;9.82;1.20;;;5.10;99.90;;;;;;5030376;28;20658;-80
2022/01/04 12:05:10;;;;;;;8.27;0.80;;;5.20;99.90;;;;;;5048415;28;20062;-80
2022/01/04 12:07:38;;;;;;;7.38;1.02;;;5.20;99.90;;;;;;5031348;28;20484;-79
2022/01/04 12:10:20;;;;;;;10.10;0.70;;;5.40;99.90;;;;;;5014952;28;20045;-82
2022/01/04 12:12:59;;;;;;;7.47;0.50;;;5.30;99.90;;;;;;5014654;28;20049;-79
2022/01/04 12:15:33;;;;;;;7.22;1.15;;;5.20;99.90;;;;;;5014876;28;20052;-82
2022/01/04 12:18:07;;;;;;;8.25;0.68;;;5.10;99.90;;;;;;5047325;28;20057;-82
2022/01/04 12:20:42;;;;;;;1.58;0.40;;;5.00;99.90;;;;;;5030926;28;20054;-80
2022/01/04 12:23:23;;;;;;;3.20;0.75;;;4.80;99.90;;;;;;5015119;28;20049;-79
2022/01/04 12:28:35;;;;;;;6.38;0.55;;;4.60;99.90;;;;;;5049029;28;20049;-79
2022/01/04 12:31:13;;;;;;;11.25;0.93;;;4.60;99.90;;;;;;5016321;28;20124;-80
2022/01/04 12:33:40;;;;;;;8.70;1.30;;;4.60;99.90;;;;;;5015453;28;20128;-80
2022/01/04 12:36:06;;;;;;;7.63;0.85;;;4.70;99.90;;;;;;5015588;28;20072;-80
2022/01/04 12:38:33;;;;;;;8.25;0.73;;;4.80;99.90;;;;;;5031907;28;20080;-81
2022/01/04 12:41:01;;;;;;;9.10;0.73;;;4.90;99.90;;;;;;5010019;28;20049;-79
2022/01/04 12:43:27;;;;;;;7.40;0.63;;;5.00;99.90;;;;;;4998831;28;20047;-80
2022/01/04 12:46:03;;;;;;;5.35;1.00;;;5.00;99.90;;;;;;5015763;28;20093;-82
2022/01/04 12:48:49;;;;;;;9.65;0.57;;;5.10;99.90;;;;;;5031832;28;20045;-79
2022/01/04 12:51:35;;;;;;;8.07;0.85;;;5.10;99.90;;;;;;5032225;28;20046;-82
2022/01/04 12:54:07;;;;;;;5.70;1.13;;;5.10;99.90;;;;;;5031642;28;20060;-79
2022/01/04 12:56:43;;;;;;;9.75;1.45;;;5.10;99.90;;;;;;5031710;28;20060;-81
2022/01/04 12:59:10;;;;;;;3.35;0.35;;;5.10;99.90;;;;;;5015466;28;20553;-81
2022/01/04 13:01:36;;;;;;;7.57;1.40;;;5.10;99.90;;;;;;5031836;28;20041;-82
2022/01/04 13:04:17;;;;;;;11.60;1.42;;;5.20;99.90;;;;;;5048780;28;20049;-82
2022/01/04 13:06:43;;;;;;;6.38;1.23;;;5.10;99.90;;;;;;5031953;28;20049;-82